Time;durP1;ratioP1;P1;durP2;ratioP2;P2;SDS_P1;SDS_P2;PMS_P1;PMS_P2;Temp;Humidity;BMP_temperature;BMP_pressure;BME280_temperature;BME280_humidity;BME280_pressure;Samples;Min_cycle;Max_cycle;Signal;HPM_P1;HPM_P2
2021/11/01 00:02:04;;;;;;;0.70;0.70;;;;;;;;;;7335730;19;153973;-15
2021/11/01 00:04:35;;;;;;;0.70;0.70;;;;;;;;;;7334791;19;153642;-17
2021/11/01 00:07:09;;;;;;;0.70;0.70;;;;;;;;;;7334912;19;161961;-15
2021/11/01 00:09:40;;;;;;;0.75;0.75;;;;;;;;;;7334396;19;162361;-15
2021/11/01 00:12:13;;;;;;;0.80;0.80;;;;;;;;;;7333724;19;154122;-15
2021/11/01 00:14:44;;;;;;;0.68;0.68;;;;;;;;;;7335348;19;154075;-13
2021/11/01 00:17:15;;;;;;;0.60;0.60;;;;;;;;;;7332990;19;161947;-12
2021/11/01 00:19:47;;;;;;;0.85;0.63;;;;;;;;;;7328518;19;162379;-16
2021/11/01 00:22:22;;;;;;;1.55;0.68;;;;;;;;;;7327774;19;153926;-14
2021/11/01 00:24:53;;;;;;;0.77;0.77;;;;;;;;;;7331205;19;153583;-12
2021/11/01 00:27:24;;;;;;;3.08;0.63;;;;;;;;;;7329460;19;161866;-15
2021/11/01 00:29:56;;;;;;;0.90;0.80;;;;;;;;;;7330829;19;162403;-13
2021/11/01 00:32:27;;;;;;;0.73;0.73;;;;;;;;;;7331212;19;153963;-12
2021/11/01 00:34:59;;;;;;;0.77;0.77;;;;;;;;;;7330849;19;153520;-14
2021/11/01 00:37:32;;;;;;;0.70;0.65;;;;;;;;;;7330690;19;161826;-13
2021/11/01 00:40:05;;;;;;;0.60;0.60;;;;;;;;;;7330447;19;162573;-14
2021/11/01 00:42:36;;;;;;;0.80;0.80;;;;;;;;;;7330944;19;153957;-13
2021/11/01 00:45:08;;;;;;;1.25;0.60;;;;;;;;;;7330741;19;153701;-15
2021/11/01 00:47:39;;;;;;;0.80;0.73;;;;;;;;;;7329571;19;161726;-13
2021/11/01 00:50:12;;;;;;;0.98;0.80;;;;;;;;;;7329681;19;162320;-12
2021/11/01 00:52:46;;;;;;;1.40;0.57;;;;;;;;;;7330712;19;153873;-15
2021/11/01 00:55:23;;;;;;;0.70;0.70;;;;;;;;;;7330344;19;153727;-13
2021/11/01 00:57:54;;;;;;;0.80;0.80;;;;;;;;;;7329955;19;161777;-16
2021/11/01 01:00:26;;;;;;;0.60;0.60;;;;;;;;;;7329923;19;162592;-15
2021/11/01 01:02:59;;;;;;;0.60;0.60;;;;;;;;;;7330506;19;154214;-13
2021/11/01 01:05:30;;;;;;;0.60;0.60;;;;;;;;;;7330121;19;153582;-16
2021/11/01 01:08:04;;;;;;;0.60;0.60;;;;;;;;;;7329344;19;162056;-13
2021/11/01 01:10:35;;;;;;;0.70;0.70;;;;;;;;;;7329654;19;163064;-14
2021/11/01 01:13:06;;;;;;;0.65;0.65;;;;;;;;;;7329973;19;154133;-15
2021/11/01 01:15:48;;;;;;;0.55;0.55;;;;;;;;;;7329762;19;153542;-12
2021/11/01 01:18:22;;;;;;;0.63;0.63;;;;;;;;;;7329340;19;161677;-14
2021/11/01 01:20:57;;;;;;;1.45;0.77;;;;;;;;;;7329268;19;162446;-15
2021/11/01 01:23:30;;;;;;;0.55;0.55;;;;;;;;;;7329550;19;154127;-16
2021/11/01 01:26:03;;;;;;;0.60;0.60;;;;;;;;;;7329466;19;153534;-14
2021/11/01 01:28:34;;;;;;;0.60;0.60;;;;;;;;;;7327452;19;161930;-12
2021/11/01 01:31:06;;;;;;;0.82;0.60;;;;;;;;;;7327585;19;162571;-14
2021/11/01 01:33:37;;;;;;;0.60;0.60;;;;;;;;;;7329484;19;153985;-14
2021/11/01 01:36:09;;;;;;;0.60;0.60;;;;;;;;;;7329166;19;153745;-16
2021/11/01 01:38:43;;;;;;;0.55;0.52;;;;;;;;;;7328817;19;161839;-13
2021/11/01 01:41:17;;;;;;;0.50;0.50;;;;;;;;;;7328472;19;162659;-13
2021/11/01 01:43:49;;;;;;;0.50;0.50;;;;;;;;;;7328814;19;154259;-13
2021/11/01 01:46:20;;;;;;;0.60;0.60;;;;;;;;;;7329014;19;153706;-13
2021/11/01 01:48:52;;;;;;;0.68;0.60;;;;;;;;;;7328013;19;161907;-13
2021/11/01 01:51:27;;;;;;;0.50;0.50;;;;;;;;;;7328369;19;162529;-14
2021/11/01 01:54:02;;;;;;;0.63;0.63;;;;;;;;;;7328672;19;153988;-15
2021/11/01 01:56:34;;;;;;;0.60;0.60;;;;;;;;;;7328567;19;153575;-14
2021/11/01 01:59:14;;;;;;;0.70;0.70;;;;;;;;;;7328269;19;161786;-15
2021/11/01 02:01:46;;;;;;;0.60;0.60;;;;;;;;;;7332135;19;162753;-13
2021/11/01 02:04:19;;;;;;;0.52;0.50;;;;;;;;;;7335480;19;154002;-14
2021/11/01 02:07:09;;;;;;;0.60;0.60;;;;;;;;;;7335292;19;153820;-12
2021/11/01 02:10:07;;;;;;;0.50;0.50;;;;;;;;;;7333808;19;162021;-13
2021/11/01 02:12:45;;;;;;;0.60;0.60;;;;;;;;;;7334689;19;162502;-12
2021/11/01 02:15:20;;;;;;;0.60;0.60;;;;;;;;;;7335155;19;153989;-15
2021/11/01 02:17:54;;;;;;;0.52;0.52;;;;;;;;;;7334839;19;153473;-12
2021/11/01 02:20:32;;;;;;;0.50;0.50;;;;;;;;;;7334617;19;161795;-15
2021/11/01 02:23:15;;;;;;;0.60;0.60;;;;;;;;;;7332966;19;162694;-15
2021/11/01 02:25:52;;;;;;;0.40;0.40;;;;;;;;;;7334874;19;153954;-13
2021/11/01 02:28:26;;;;;;;0.50;0.50;;;;;;;;;;7333461;19;153558;-13
2021/11/01 02:30:58;;;;;;;0.50;0.50;;;;;;;;;;7331057;19;162007;-15
2021/11/01 02:33:30;;;;;;;0.47;0.47;;;;;;;;;;7334249;19;162479;-14
2021/11/01 02:36:02;;;;;;;0.53;0.53;;;;;;;;;;7334595;19;153974;-12
2021/11/01 02:38:34;;;;;;;0.85;0.60;;;;;;;;;;7334433;19;153502;-14
2021/11/01 02:41:22;;;;;;;0.40;0.40;;;;;;;;;;7333774;19;161752;-12
2021/11/01 02:43:55;;;;;;;0.75;0.40;;;;;;;;;;7334000;19;162868;-13
2021/11/01 02:46:26;;;;;;;;;;;;;;;;;;7333515;19;154680;-13
2021/11/01 02:48:58;;;;;;;0.60;0.60;;;;;;;;;;7332845;19;153390;-14
2021/11/01 02:51:31;;;;;;;0.40;0.40;;;;;;;;;;7331303;19;161755;-14
2021/11/01 02:54:03;;;;;;;0.40;0.40;;;;;;;;;;7333605;19;163039;-14
2021/11/01 02:56:37;;;;;;;0.50;0.50;;;;;;;;;;7333049;19;154012;-14
2021/11/01 02:59:08;;;;;;;0.50;0.50;;;;;;;;;;7333735;19;153605;-15
2021/11/01 03:01:40;;;;;;;0.43;0.43;;;;;;;;;;7333415;19;161802;-15
2021/11/01 03:04:11;;;;;;;0.75;0.40;;;;;;;;;;7333269;19;162395;-14
2021/11/01 03:06:43;;;;;;;0.45;0.45;;;;;;;;;;7333557;19;154215;-12
2021/11/01 03:09:15;;;;;;;0.45;0.40;;;;;;;;;;7333488;19;153540;-13
2021/11/01 03:11:49;;;;;;;0.50;0.50;;;;;;;;;;7332362;19;161988;-13
2021/11/01 03:14:33;;;;;;;0.50;0.50;;;;;;;;;;7331761;19;162503;-15
2021/11/01 03:17:07;;;;;;;0.40;0.40;;;;;;;;;;7333045;19;154142;-14
2021/11/01 03:19:40;;;;;;;;;;;;;;;;;;7333664;19;154199;-15
2021/11/01 03:22:12;;;;;;;0.40;0.40;;;;;;;;;;7332908;19;162223;-13
2021/11/01 03:24:51;;;;;;;0.30;0.30;;;;;;;;;;7332503;19;162473;-13
2021/11/01 03:27:27;;;;;;;0.32;0.32;;;;;;;;;;7333089;19;154241;-14
2021/11/01 03:29:59;;;;;;;0.40;0.40;;;;;;;;;;7329910;19;153523;-12
2021/11/01 03:32:31;;;;;;;0.50;0.50;;;;;;;;;;7332398;19;161742;-13
2021/11/01 03:35:04;;;;;;;0.55;0.55;;;;;;;;;;7332452;19;162583;-12
2021/11/01 03:37:36;;;;;;;0.30;0.30;;;;;;;;;;7332848;19;154334;-14
2021/11/01 03:40:12;;;;;;;0.35;0.35;;;;;;;;;;7332660;19;153509;-13
2021/11/01 03:42:47;;;;;;;0.32;0.32;;;;;;;;;;7332080;19;161878;-15
2021/11/01 03:45:20;;;;;;;0.40;0.40;;;;;;;;;;7332110;19;162345;-13
2021/11/01 03:47:52;;;;;;;0.40;0.40;;;;;;;;;;7332589;19;154008;-12
2021/11/01 03:50:30;;;;;;;0.50;0.50;;;;;;;;;;7331613;19;154005;-14
2021/11/01 03:53:01;;;;;;;0.40;0.40;;;;;;;;;;7332039;19;161871;-16
2021/11/01 03:55:33;;;;;;;0.30;0.30;;;;;;;;;;7331734;19;162436;-15
2021/11/01 03:58:07;;;;;;;0.38;0.38;;;;;;;;;;7332537;19;154077;-13
2021/11/01 04:00:39;;;;;;;0.40;0.40;;;;;;;;;;7332117;19;153494;-13
2021/11/01 04:03:11;;;;;;;0.32;0.32;;;;;;;;;;7331796;19;161756;-17
2021/11/01 04:05:43;;;;;;;0.60;0.60;;;;;;;;;;7331704;19;162392;-14
2021/11/01 04:08:14;;;;;;;0.43;0.43;;;;;;;;;;7332140;19;154010;-13
2021/11/01 04:10:45;;;;;;;0.30;0.30;;;;;;;;;;7329637;19;153622;-12
2021/11/01 04:13:22;;;;;;;0.40;0.40;;;;;;;;;;7327927;19;162558;-14
2021/11/01 04:15:59;;;;;;;0.43;0.43;;;;;;;;;;7331793;19;162144;-19
2021/11/01 04:18:37;;;;;;;0.40;0.40;;;;;;;;;;7332075;19;154188;-13
2021/11/01 04:21:09;;;;;;;0.50;0.50;;;;;;;;;;7331890;19;153542;-16
2021/11/01 04:23:41;;;;;;;;;;;;;;;;;;7329839;19;162326;-13
2021/11/01 04:26:14;;;;;;;0.40;0.40;;;;;;;;;;7331550;19;162623;-13
2021/11/01 04:28:49;;;;;;;0.30;0.30;;;;;;;;;;7330062;19;154121;-16
2021/11/01 04:31:25;;;;;;;0.30;0.30;;;;;;;;;;7329826;19;153573;-16
2021/11/01 04:34:00;;;;;;;0.40;0.40;;;;;;;;;;7329818;19;161924;-14
2021/11/01 04:36:32;;;;;;;0.30;0.30;;;;;;;;;;7330796;19;162175;-14
2021/11/01 04:39:09;;;;;;;0.30;0.30;;;;;;;;;;7331408;19;154243;-17
2021/11/01 04:41:53;;;;;;;0.40;0.40;;;;;;;;;;7331026;19;153481;-14
2021/11/01 04:53:03;;;;;;;0.30;0.30;;;;;;;;;;7328584;19;153757;-12
2021/11/01 04:55:35;;;;;;;0.25;0.25;;;;;;;;;;7329145;19;162010;-12
2021/11/01 04:58:06;;;;;;;0.40;0.40;;;;;;;;;;7328969;19;162671;-12
2021/11/01 05:00:41;;;;;;;0.43;0.43;;;;;;;;;;7330340;19;154142;-15
2021/11/01 05:03:17;;;;;;;0.30;0.30;;;;;;;;;;7329317;19;153574;-13
2021/11/01 05:05:48;;;;;;;0.40;0.40;;;;;;;;;;7330129;19;161971;-14
2021/11/01 05:08:22;;;;;;;0.32;0.32;;;;;;;;;;7329923;19;162659;-14
2021/11/01 05:10:59;;;;;;;0.40;0.40;;;;;;;;;;7329840;19;154040;-14
2021/11/01 05:13:32;;;;;;;0.20;0.20;;;;;;;;;;7330029;19;153658;-15
2021/11/01 05:16:11;;;;;;;0.30;0.30;;;;;;;;;;7329617;19;161948;-14
2021/11/01 05:18:47;;;;;;;0.45;0.45;;;;;;;;;;7329698;19;162459;-15
2021/11/01 05:21:27;;;;;;;0.30;0.30;;;;;;;;;;7330089;19;154156;-13
2021/11/01 05:24:02;;;;;;;0.35;0.35;;;;;;;;;;7329947;19;153816;-15
2021/11/01 05:26:51;;;;;;;0.45;0.45;;;;;;;;;;7329277;19;161777;-16
2021/11/01 05:29:23;;;;;;;0.40;0.40;;;;;;;;;;7327070;19;162392;-13
2021/11/01 05:32:01;;;;;;;0.40;0.40;;;;;;;;;;7328228;19;154149;-15
2021/11/01 05:34:33;;;;;;;0.40;0.40;;;;;;;;;;7331172;19;153578;-15
2021/11/01 05:37:04;;;;;;;0.50;0.50;;;;;;;;;;7335825;19;161809;-13
2021/11/01 05:39:35;;;;;;;0.30;0.30;;;;;;;;;;7335645;19;163245;-14
2021/11/01 05:42:07;;;;;;;0.30;0.30;;;;;;;;;;7336233;19;154168;-15
2021/11/01 05:44:39;;;;;;;0.40;0.40;;;;;;;;;;7336297;19;153544;-13
2021/11/01 05:47:13;;;;;;;0.20;0.20;;;;;;;;;;7335663;19;161916;-15
2021/11/01 05:49:44;;;;;;;0.35;0.35;;;;;;;;;;7335593;19;162434;-14
2021/11/01 05:52:22;;;;;;;0.20;0.20;;;;;;;;;;7334727;19;154030;-14
2021/11/01 05:54:57;;;;;;;0.30;0.30;;;;;;;;;;7335903;19;153507;-13
2021/11/01 05:57:40;;;;;;;0.30;0.30;;;;;;;;;;7335360;19;161819;-12
2021/11/01 06:00:33;;;;;;;;;;;;;;;;;;7335728;19;163210;-13
2021/11/01 06:03:11;;;;;;;0.30;0.30;;;;;;;;;;7335645;19;154041;-16
2021/11/01 06:08:41;;;;;;;0.30;0.30;;;;;;;;;;7335203;19;161938;-15
2021/11/01 06:13:58;;;;;;;0.30;0.30;;;;;;;;;;7335414;19;154046;-14
2021/11/01 06:16:30;;;;;;;0.40;0.40;;;;;;;;;;7335157;19;153640;-16
2021/11/01 06:19:03;;;;;;;0.30;0.30;;;;;;;;;;7334723;19;161792;-16
2021/11/01 06:21:35;;;;;;;0.30;0.30;;;;;;;;;;7333485;19;162464;-15
2021/11/01 06:24:18;;;;;;;0.40;0.40;;;;;;;;;;7335262;19;154043;-15
2021/11/01 06:26:50;;;;;;;0.30;0.30;;;;;;;;;;7333746;19;153577;-14
2021/11/01 06:29:26;;;;;;;0.25;0.25;;;;;;;;;;7332684;19;161865;-14
2021/11/01 06:32:08;;;;;;;0.30;0.30;;;;;;;;;;7334144;19;162468;-15
2021/11/01 06:39:01;;;;;;;0.43;0.30;;;;;;;;;;7334716;19;153943;-15
2021/11/01 06:40:46;;;;;;;0.30;0.30;;;;;;;;;;7334390;19;161811;-14
2021/11/01 06:43:21;;;;;;;0.20;0.20;;;;;;;;;;7334097;19;162545;-13
2021/11/01 06:52:14;;;;;;;0.20;0.20;;;;;;;;;;7333914;19;161860;-14
2021/11/01 07:14:17;;;;;;;0.30;0.30;;;;;;;;;;7330371;19;161822;-13
2021/11/01 07:16:53;;;;;;;0.35;0.35;;;;;;;;;;7332875;19;162616;-13
2021/11/01 07:19:31;;;;;;;0.20;0.20;;;;;;;;;;7333322;19;153766;-14
2021/11/01 08:20:29;;;;;;;0.30;0.30;;;;;;;;;;7331708;19;153715;-15
2021/11/01 08:23:30;;;;;;;0.20;0.20;;;;;;;;;;7331355;19;162555;-14
2021/11/01 08:26:25;;;;;;;0.20;0.20;;;;;;;;;;7331544;19;154106;-13
2021/11/01 08:29:16;;;;;;;0.20;0.20;;;;;;;;;;7329792;19;153584;-15
2021/11/01 08:40:16;;;;;;;0.20;0.20;;;;;;;;;;7330643;19;153505;-12
2021/11/01 08:48:39;;;;;;;0.30;0.30;;;;;;;;;;7334002;19;154002;-15
2021/11/01 09:02:38;;;;;;;0.40;0.40;;;;;;;;;;7332230;19;153330;-15
2021/11/01 09:19:16;;;;;;;0.52;0.52;;;;;;;;;;7332594;19;162364;-15
2021/11/01 09:22:15;;;;;;;0.50;0.50;;;;;;;;;;7332073;19;154042;-14
2021/11/01 09:24:50;;;;;;;0.47;0.40;;;;;;;;;;7333499;19;153783;-13
2021/11/01 09:27:25;;;;;;;0.57;0.40;;;;;;;;;;7328973;19;161816;-14
2021/11/01 09:30:08;;;;;;;0.45;0.45;;;;;;;;;;7322951;19;162353;-16
2021/11/01 09:41:08;;;;;;;0.75;0.47;;;;;;;;;;7322596;19;162859;-15
2021/11/01 09:43:40;;;;;;;0.40;0.40;;;;;;;;;;7324895;19;154178;-15
2021/11/01 09:46:12;;;;;;;0.50;0.50;;;;;;;;;;7329146;19;153523;-16
2021/11/01 09:48:44;;;;;;;1.20;0.50;;;;;;;;;;7328543;19;161806;-15
2021/11/01 09:51:15;;;;;;;0.50;0.50;;;;;;;;;;7328684;19;162322;-13
2021/11/01 09:53:49;;;;;;;0.40;0.40;;;;;;;;;;7328165;19;154014;-14
2021/11/01 09:56:29;;;;;;;1.10;0.50;;;;;;;;;;7328765;19;153564;-12
2021/11/01 09:59:15;;;;;;;0.40;0.40;;;;;;;;;;7328376;19;161784;-14
2021/11/01 10:01:51;;;;;;;0.30;0.30;;;;;;;;;;7328368;19;162390;-12
2021/11/01 10:04:25;;;;;;;1.23;0.40;;;;;;;;;;7328034;19;153963;-13
2021/11/01 10:07:18;;;;;;;0.40;0.40;;;;;;;;;;7328473;19;153452;-13
2021/11/01 10:09:57;;;;;;;0.40;0.40;;;;;;;;;;7328036;19;161778;-13
2021/11/01 10:12:34;;;;;;;0.22;0.22;;;;;;;;;;7326974;19;162695;-14
2021/11/01 10:17:59;;;;;;;0.30;0.30;;;;;;;;;;7326298;19;153800;-13
2021/11/01 10:20:32;;;;;;;0.43;0.43;;;;;;;;;;7328006;19;161836;-15
2021/11/01 10:23:03;;;;;;;0.40;0.40;;;;;;;;;;7334067;19;162676;-13
2021/11/01 10:25:37;;;;;;;0.63;0.50;;;;;;;;;;7334977;19;154048;-13
2021/11/01 10:28:08;;;;;;;0.30;0.30;;;;;;;;;;7334336;19;153724;-14
2021/11/01 10:30:40;;;;;;;0.30;0.30;;;;;;;;;;7333065;19;161837;-14
2021/11/01 10:33:12;;;;;;;0.30;0.30;;;;;;;;;;7334130;19;162391;-13
2021/11/01 10:35:43;;;;;;;0.45;0.32;;;;;;;;;;7332453;19;154383;-15
2021/11/01 10:38:21;;;;;;;0.28;0.28;;;;;;;;;;7334322;19;153511;-12
2021/11/01 10:41:02;;;;;;;0.30;0.30;;;;;;;;;;7333945;19;161929;-16
2021/11/01 10:43:50;;;;;;;0.50;0.40;;;;;;;;;;7334098;19;162685;-12
2021/11/01 11:11:32;;;;;;;0.30;0.30;;;;;;;;;;7332600;19;153508;-13
2021/11/01 11:14:17;;;;;;;0.20;0.20;;;;;;;;;;7331859;19;162163;-16
2021/11/01 11:19:46;;;;;;;0.32;0.32;;;;;;;;;;7333277;19;154321;-14
2021/11/01 11:31:23;;;;;;;;;;;;;;;;;;7331749;19;153972;-16
2021/11/01 11:39:34;;;;;;;0.40;0.40;;;;;;;;;;7334094;19;162769;-14
2021/11/01 11:47:54;;;;;;;0.32;0.32;;;;;;;;;;7335043;19;161924;-15
2021/11/01 11:50:29;;;;;;;0.50;0.30;;;;;;;;;;7335835;19;162705;-13
2021/11/01 11:53:11;;;;;;;0.30;0.30;;;;;;;;;;7335051;19;154041;-13
2021/11/01 11:55:43;;;;;;;0.35;0.30;;;;;;;;;;7331641;19;153559;-13
2021/11/01 11:58:16;;;;;;;0.80;0.38;;;;;;;;;;7335971;19;161969;-13
2021/11/01 12:00:47;;;;;;;;;;;;;;;;;;7332344;19;162637;-15
2021/11/01 12:03:23;;;;;;;0.40;0.40;;;;;;;;;;7332574;19;154116;-13
2021/11/01 12:05:59;;;;;;;0.30;0.30;;;;;;;;;;7333228;19;153609;-15
2021/11/01 12:08:34;;;;;;;0.30;0.30;;;;;;;;;;7336113;19;161756;-12
2021/11/01 12:17:07;;;;;;;0.75;0.47;;;;;;;;;;7332362;19;153639;-15
2021/11/01 12:19:41;;;;;;;0.52;0.40;;;;;;;;;;7333466;19;161857;-16
2021/11/01 12:22:25;;;;;;;0.47;0.47;;;;;;;;;;7330984;19;162533;-15
2021/11/01 12:25:03;;;;;;;1.30;0.40;;;;;;;;;;7334594;19;154057;-14
2021/11/01 12:27:40;;;;;;;0.85;0.85;;;;;;;;;;7331083;19;153703;-14
2021/11/01 12:30:22;;;;;;;2.05;1.85;;;;;;;;;;7327973;19;161892;-12
2021/11/01 12:32:54;;;;;;;2.30;2.10;;;;;;;;;;7332809;19;162305;-14
2021/11/01 12:35:31;;;;;;;2.00;1.90;;;;;;;;;;7334020;19;154018;-13
2021/11/01 12:38:08;;;;;;;2.03;1.92;;;;;;;;;;7331264;19;153426;-16
2021/11/01 12:40:49;;;;;;;2.00;1.90;;;;;;;;;;7330455;19;161739;-15
2021/11/01 12:49:08;;;;;;;2.10;2.00;;;;;;;;;;7335353;19;153700;-14
2021/11/01 12:57:18;;;;;;;1.13;1.13;;;;;;;;;;7329437;19;154044;-14
2021/11/01 12:59:52;;;;;;;1.35;1.30;;;;;;;;;;7333589;19;153532;-14
2021/11/01 13:02:35;;;;;;;1.08;0.98;;;;;;;;;;7330106;19;161819;-16
2021/11/01 13:05:09;;;;;;;0.88;0.85;;;;;;;;;;7329982;19;162509;-14
2021/11/01 13:07:53;;;;;;;1.02;0.80;;;;;;;;;;7330368;19;154023;-12
2021/11/01 13:10:33;;;;;;;1.23;1.00;;;;;;;;;;7330250;19;153481;-16
2021/11/01 13:19:07;;;;;;;0.80;0.80;;;;;;;;;;7333445;19;154008;-15
2021/11/01 13:21:46;;;;;;;;;;;;;;;;;;7330780;19;153499;-15
2021/11/01 13:24:21;;;;;;;0.77;0.77;;;;;;;;;;7332805;19;162303;-16
2021/11/01 13:27:13;;;;;;;0.60;0.60;;;;;;;;;;7332936;19;162771;-13
2021/11/01 13:38:08;;;;;;;0.98;0.90;;;;;;;;;;7329231;19;162366;-16
2021/11/01 13:40:46;;;;;;;0.73;0.73;;;;;;;;;;7330552;19;153931;-15
2021/11/01 13:43:27;;;;;;;0.70;0.70;;;;;;;;;;7331618;19;153485;-12
2021/11/01 13:46:01;;;;;;;0.80;0.70;;;;;;;;;;7332171;19;162014;-14
2021/11/01 13:48:34;;;;;;;0.90;0.90;;;;;;;;;;7323978;19;162409;-15
2021/11/01 13:51:09;;;;;;;0.73;0.73;;;;;;;;;;7327423;19;154374;-16
2021/11/01 13:53:59;;;;;;;0.50;0.50;;;;;;;;;;7327814;19;153598;-15
2021/11/01 13:56:38;;;;;;;0.70;0.70;;;;;;;;;;7330695;19;161953;-15
2021/11/01 14:13:18;;;;;;;0.60;0.60;;;;;;;;;;7335348;19;154133;-17
2021/11/01 14:18:49;;;;;;;0.52;0.52;;;;;;;;;;7334888;19;161783;-14
2021/11/01 14:32:43;;;;;;;0.40;0.40;;;;;;;;;;7335033;19;162816;-15
2021/11/01 15:16:36;;;;;;;0.52;0.40;;;;;;;;;;7333132;19;162585;-15
2021/11/01 15:19:28;;;;;;;0.30;0.30;;;;;;;;;;7333745;19;153956;-16
2021/11/01 15:22:15;;;;;;;0.35;0.35;;;;;;;;;;7333680;19;153492;-14
2021/11/01 15:25:00;;;;;;;0.40;0.40;;;;;;;;;;7333297;19;162193;-13
2021/11/01 15:27:55;;;;;;;0.30;0.30;;;;;;;;;;7333219;19;163097;-14
2021/11/01 15:39:06;;;;;;;0.43;0.38;;;;;;;;;;7329394;19;162385;-17
2021/11/01 16:20:30;;;;;;;0.60;0.60;;;;;;;;;;7329117;19;162163;-14
2021/11/01 16:26:01;;;;;;;1.45;0.60;;;;;;;;;;7329112;19;154355;-15
2021/11/01 16:28:34;;;;;;;0.50;0.50;;;;;;;;;;7330369;19;153614;-13
2021/11/01 16:33:55;;;;;;;1.00;0.50;;;;;;;;;;7329967;19;162485;-17
2021/11/01 16:36:41;;;;;;;0.93;0.47;;;;;;;;;;7331406;19;154129;-15
2021/11/01 16:39:14;;;;;;;1.52;0.50;;;;;;;;;;7328530;19;153547;-13
2021/11/01 16:41:52;;;;;;;0.87;0.50;;;;;;;;;;7330995;19;161821;-17
2021/11/01 16:44:26;;;;;;;0.40;0.40;;;;;;;;;;7330756;19;162433;-16
2021/11/01 16:46:58;;;;;;;0.57;0.57;;;;;;;;;;7331220;19;154221;-14
2021/11/01 16:49:33;;;;;;;0.60;0.60;;;;;;;;;;7330977;19;153590;-14
2021/11/01 16:52:12;;;;;;;0.75;0.40;;;;;;;;;;7330461;19;161780;-16
2021/11/01 16:54:47;;;;;;;0.77;0.40;;;;;;;;;;7330320;19;162252;-15
2021/11/01 16:57:36;;;;;;;0.50;0.50;;;;;;;;;;7333135;19;154135;-16
2021/11/01 17:00:25;;;;;;;0.40;0.40;;;;;;;;;;7330625;19;153653;-15
2021/11/01 17:03:10;;;;;;;0.40;0.40;;;;;;;;;;7333445;19;161983;-14
2021/11/01 17:06:05;;;;;;;0.50;0.50;;;;;;;;;;7331865;19;162409;-14
2021/11/01 17:08:57;;;;;;;0.50;0.50;;;;;;;;;;7334041;19;153993;-17
2021/11/01 17:22:43;;;;;;;0.40;0.40;;;;;;;;;;7331765;19;153703;-14
2021/11/01 17:25:19;;;;;;;0.50;0.50;;;;;;;;;;7331946;19;162022;-13
2021/11/01 17:31:26;;;;;;;0.40;0.40;;;;;;;;;;7331452;19;154141;-16
2021/11/01 17:36:59;;;;;;;0.40;0.40;;;;;;;;;;7333052;19;161956;-16
2021/11/01 18:38:33;;;;;;;0.40;0.40;;;;;;;;;;7325558;19;154154;-15
2021/11/01 18:41:11;;;;;;;1.35;0.40;;;;;;;;;;7330757;19;153697;-13
2021/11/01 18:50:45;;;;;;;0.50;0.40;;;;;;;;;;7335573;19;162638;-15
2021/11/01 18:52:18;;;;;;;0.40;0.40;;;;;;;;;;7334233;19;154283;-14
2021/11/01 18:54:57;;;;;;;0.70;0.70;;;;;;;;;;7333842;19;161777;-15
2021/11/01 18:57:30;;;;;;;0.40;0.40;;;;;;;;;;7333884;19;162375;-14
2021/11/01 19:00:05;;;;;;;0.60;0.32;;;;;;;;;;7332239;19;153999;-12
2021/11/01 19:02:48;;;;;;;0.30;0.30;;;;;;;;;;7333941;19;153756;-13
2021/11/01 19:05:29;;;;;;;0.40;0.40;;;;;;;;;;7334278;19;161918;-15
2021/11/01 19:08:10;;;;;;;0.40;0.40;;;;;;;;;;7333318;19;162323;-15
2021/11/01 20:06:22;;;;;;;0.85;0.50;;;;;;;;;;7336074;19;154151;-15
2021/11/01 20:12:06;;;;;;;0.57;0.57;;;;;;;;;;7328627;19;161877;-15
2021/11/01 21:26:38;;;;;;;0.38;0.38;;;;;;;;;;7331792;19;153506;-15
2021/11/01 21:29:10;;;;;;;0.80;0.57;;;;;;;;;;7329406;19;161979;-14
2021/11/01 21:31:41;;;;;;;0.40;0.40;;;;;;;;;;7332871;19;162450;-16
2021/11/01 21:34:16;;;;;;;0.52;0.52;;;;;;;;;;7332767;19;154070;-14
2021/11/01 21:36:47;;;;;;;0.63;0.47;;;;;;;;;;7332308;19;153802;-13
2021/11/01 21:39:21;;;;;;;0.40;0.40;;;;;;;;;;7331763;19;161798;-12
2021/11/01 21:41:52;;;;;;;0.63;0.60;;;;;;;;;;7331260;19;162411;-15
2021/11/01 21:44:24;;;;;;;0.40;0.40;;;;;;;;;;7330898;19;154969;-14
2021/11/01 21:46:55;;;;;;;0.50;0.50;;;;;;;;;;7328177;19;153792;-12
2021/11/01 21:49:27;;;;;;;0.30;0.30;;;;;;;;;;7330032;19;161766;-14
2021/11/01 21:51:58;;;;;;;0.47;0.47;;;;;;;;;;7329669;19;162714;-14
2021/11/01 21:54:34;;;;;;;0.40;0.40;;;;;;;;;;7331160;19;154177;-14
2021/11/01 21:57:09;;;;;;;1.67;0.60;;;;;;;;;;7331612;19;153523;-13
2021/11/01 22:00:08;;;;;;;0.40;0.40;;;;;;;;;;7330814;19;161849;-14
2021/11/01 22:19:31;;;;;;;0.30;0.30;;;;;;;;;;7336349;19;153506;-13
2021/11/01 22:22:14;;;;;;;0.30;0.30;;;;;;;;;;7334726;19;161812;-12
2021/11/01 22:24:57;;;;;;;;;;;;;;;;;;7337950;19;162680;-12
2021/11/01 22:33:12;;;;;;;0.40;0.40;;;;;;;;;;7337799;19;162081;-14
2021/11/01 22:38:44;;;;;;;0.57;0.30;;;;;;;;;;7336792;19;154138;-13
2021/11/01 22:57:46;;;;;;;0.38;0.38;;;;;;;;;;7337805;19;163731;-17
2021/11/01 23:00:23;;;;;;;0.57;0.40;;;;;;;;;;7335704;19;153966;-16
2021/11/01 23:02:59;;;;;;;0.40;0.40;;;;;;;;;;7336352;19;153501;-14
2021/11/01 23:05:46;;;;;;;0.20;0.20;;;;;;;;;;7336934;19;161722;-17
2021/11/01 23:33:00;;;;;;;0.28;0.28;;;;;;;;;;7334327;19;154159;-13
2021/11/01 23:35:31;;;;;;;0.40;0.40;;;;;;;;;;7335810;19;153493;-15
2021/11/01 23:38:02;;;;;;;0.30;0.30;;;;;;;;;;7333229;19;161501;-13
2021/11/01 23:40:33;;;;;;;0.30;0.30;;;;;;;;;;7334122;19;162494;-13
2021/11/01 23:43:06;;;;;;;0.30;0.30;;;;;;;;;;7333705;19;153968;-14
2021/11/01 23:45:38;;;;;;;0.35;0.35;;;;;;;;;;7335592;19;153579;-17
2021/11/01 23:48:16;;;;;;;0.40;0.40;;;;;;;;;;7334931;19;161996;-14
2021/11/01 23:50:48;;;;;;;0.35;0.20;;;;;;;;;;7334069;19;162510;-14
2021/11/01 23:53:40;;;;;;;0.28;0.28;;;;;;;;;;7336092;19;154015;-16
2021/11/01 23:56:13;;;;;;;1.58;0.30;;;;;;;;;;7333135;19;153502;-16
2021/11/01 23:58:45;;;;;;;;;;;;;;;;;;7334317;19;161825;-16
